createdAt,value
2018-03-30T00:00:41.896Z,6.17
2018-03-30T00:03:10.294Z,6.15
2018-03-30T00:05:39.467Z,6.15
2018-03-30T00:08:07.904Z,6.15
2018-03-30T00:10:41.810Z,6.31
2018-03-30T00:13:11.231Z,6.37
2018-03-30T00:15:39.612Z,6.26
2018-03-30T00:18:08.005Z,6.34
2018-03-30T00:20:36.428Z,6.33
2018-03-30T00:23:04.823Z,6.39
2018-03-30T00:25:33.971Z,6.34
2018-03-30T00:28:02.353Z,6.50
2018-03-30T00:30:30.740Z,6.40
2018-03-30T00:32:59.152Z,6.38
2018-03-30T00:35:27.545Z,6.44
2018-03-30T00:37:55.920Z,6.39
2018-03-30T00:40:25.164Z,6.34
2018-03-30T00:42:53.586Z,6.29
2018-03-30T00:45:22.009Z,6.25
2018-03-30T00:47:50.508Z,6.27
2018-03-30T00:50:18.900Z,6.22
2018-03-30T00:52:47.283Z,6.20
2018-03-30T00:55:15.682Z,6.32
2018-03-30T00:57:44.063Z,6.15
2018-03-30T01:00:12.465Z,6.17
2018-03-30T01:02:40.963Z,6.30
2018-03-30T01:05:09.380Z,6.23
2018-03-30T01:07:37.753Z,6.32
2018-03-30T01:10:06.162Z,6.24
2018-03-30T01:12:34.634Z,6.19
2018-03-30T01:15:03.237Z,6.20
2018-03-30T01:17:31.656Z,6.16
2018-03-30T01:20:00.036Z,6.18
2018-03-30T01:22:28.417Z,6.23
2018-03-30T01:24:56.800Z,6.27
2018-03-30T01:27:25.939Z,6.23
2018-03-30T01:29:54.318Z,6.29
2018-03-30T01:32:22.702Z,6.17
2018-03-30T01:34:51.155Z,6.15
2018-03-30T01:37:20.352Z,6.12
2018-03-30T01:39:52.720Z,6.16
2018-03-30T01:42:21.891Z,6.17
2018-03-30T01:44:50.278Z,6.07
2018-03-30T01:47:18.678Z,6.06
2018-03-30T01:49:47.866Z,6.20
2018-03-30T01:52:16.288Z,6.11
2018-03-30T01:54:44.663Z,5.90
2018-03-30T01:57:13.064Z,6.04
2018-03-30T01:59:41.606Z,6.01
2018-03-30T02:02:10.755Z,6.04
2018-03-30T02:04:39.193Z,5.96
2018-03-30T02:07:07.582Z,5.96
2018-03-30T02:09:36.720Z,5.99
2018-03-30T02:12:05.273Z,6.04
2018-03-30T02:14:33.643Z,5.96
2018-03-30T02:17:02.948Z,6.04
2018-03-30T02:19:32.086Z,6.11
2018-03-30T02:22:01.386Z,6.05
2018-03-30T02:24:29.751Z,6.06
2018-03-30T02:26:58.127Z,6.11
2018-03-30T02:29:26.527Z,6.12
2018-03-30T02:31:54.893Z,6.01
2018-03-30T02:34:23.317Z,6.08
2018-03-30T02:36:51.711Z,6.02
2018-03-30T02:39:20.126Z,5.99
2018-03-30T02:41:48.542Z,5.96
2018-03-30T02:44:16.943Z,5.93
2018-03-30T02:46:45.348Z,5.90
2018-03-30T02:49:13.719Z,6.03
2018-03-30T02:51:42.175Z,5.97
2018-03-30T02:54:11.344Z,6.01
2018-03-30T02:56:39.937Z,5.90
2018-03-30T02:59:08.470Z,5.91
2018-03-30T03:01:37.037Z,5.98
2018-03-30T03:04:05.415Z,5.99
2018-03-30T03:06:33.804Z,5.88
2018-03-30T03:09:02.379Z,5.87
2018-03-30T03:11:30.762Z,5.90
2018-03-30T03:14:00.551Z,5.96
2018-03-30T03:16:28.947Z,5.97
2018-03-30T03:18:57.391Z,5.79
2018-03-30T03:21:26.526Z,5.92
2018-03-30T03:23:54.947Z,5.99
2018-03-30T03:26:23.330Z,5.98
2018-03-30T03:28:52.680Z,5.90
2018-03-30T03:31:21.144Z,5.99
2018-03-30T03:33:49.530Z,5.93
2018-03-30T03:36:17.925Z,6.02
2018-03-30T03:38:46.324Z,5.97
2018-03-30T03:41:14.878Z,5.94
2018-03-30T03:43:43.280Z,6.00
2018-03-30T03:46:11.671Z,5.93
2018-03-30T03:48:40.101Z,6.07
2018-03-30T03:51:09.240Z,6.00
2018-03-30T03:53:37.634Z,5.88
2018-03-30T03:56:06.043Z,5.92
2018-03-30T03:58:34.461Z,5.87
2018-03-30T04:01:02.973Z,5.91
2018-03-30T04:03:31.351Z,5.94
2018-03-30T04:05:59.755Z,5.83
2018-03-30T04:08:28.110Z,5.84
2018-03-30T04:10:56.486Z,5.91
2018-03-30T04:13:24.932Z,5.92
2018-03-30T04:15:54.134Z,5.78
2018-03-30T04:18:23.270Z,5.66
2018-03-30T04:20:51.631Z,5.83
2018-03-30T04:23:20.005Z,5.88
2018-03-30T04:25:48.371Z,5.73
2018-03-30T04:28:17.523Z,5.85
2018-03-30T04:30:45.900Z,5.77
2018-03-30T04:33:14.360Z,5.98
2018-03-30T04:35:42.725Z,6.04
2018-03-30T04:38:11.190Z,6.09
2018-03-30T04:40:40.342Z,6.11
2018-03-30T04:43:08.726Z,6.09
2018-03-30T04:45:37.138Z,6.13
2018-03-30T04:48:05.559Z,6.05
2018-03-30T04:50:33.965Z,6.19
2018-03-30T04:53:02.350Z,6.15
2018-03-30T04:55:30.926Z,6.05
2018-03-30T04:57:59.350Z,6.14
2018-03-30T05:00:27.723Z,6.21
2018-03-30T05:02:56.103Z,6.26
2018-03-30T05:05:25.268Z,6.35
2018-03-30T05:07:53.680Z,6.27
2018-03-30T05:10:22.016Z,6.29
2018-03-30T05:12:50.447Z,6.24
2018-03-30T05:15:18.835Z,6.35
2018-03-30T05:17:47.498Z,6.39
2018-03-30T05:20:15.892Z,6.25
2018-03-30T05:22:44.293Z,6.19
2018-03-30T05:25:13.463Z,6.24
2018-03-30T05:27:41.861Z,6.24
2018-03-30T05:30:10.426Z,6.31
2018-03-30T05:32:38.903Z,6.31
2018-03-30T05:35:07.299Z,6.32
2018-03-30T05:37:35.704Z,6.49
2018-03-30T05:40:04.097Z,6.49
2018-03-30T05:42:33.251Z,6.70
2018-03-30T05:45:01.635Z,6.53
2018-03-30T05:47:30.092Z,6.56
2018-03-30T05:49:58.484Z,6.66
2018-03-30T05:52:26.864Z,6.64
2018-03-30T05:54:55.306Z,6.70
2018-03-30T05:57:24.488Z,6.76
2018-03-30T05:59:52.889Z,6.91
2018-03-30T06:02:22.107Z,6.97
2018-03-30T06:04:50.516Z,6.95
2018-03-30T06:07:18.892Z,7.08
2018-03-30T06:09:47.286Z,7.28
2018-03-30T06:12:15.685Z,7.55
2018-03-30T06:14:44.128Z,7.62
2018-03-30T06:17:12.526Z,7.67
2018-03-30T06:19:40.904Z,7.83
2018-03-30T06:22:09.288Z,7.91
2018-03-30T06:24:37.710Z,7.99
2018-03-30T06:27:07.044Z,7.73
2018-03-30T06:29:36.215Z,7.60
2018-03-30T06:32:04.611Z,7.53
2018-03-30T06:34:32.987Z,7.47
2018-03-30T06:37:01.363Z,7.44
2018-03-30T06:39:31.376Z,7.49
2018-03-30T06:42:02.406Z,7.46
2018-03-30T06:44:31.562Z,7.78
2018-03-30T06:46:59.956Z,7.97
2018-03-30T06:49:28.583Z,8.15
2018-03-30T06:51:56.968Z,8.16
2018-03-30T06:54:25.344Z,8.55
2018-03-30T06:57:08.730Z,8.53
2018-03-30T06:59:37.130Z,9.10
2018-03-30T07:02:05.549Z,9.41
2018-03-30T07:04:34.798Z,9.35
2018-03-30T07:07:03.488Z,9.30
2018-03-30T07:09:31.893Z,9.13
2018-03-30T07:12:00.444Z,8.86
2018-03-30T07:14:28.817Z,9.01
2018-03-30T07:16:57.234Z,9.12
2018-03-30T07:19:25.854Z,10.10
2018-03-30T07:21:55.563Z,10.46
2018-03-30T07:24:23.974Z,10.44
2018-03-30T07:26:52.394Z,10.71
2018-03-30T07:29:20.811Z,10.53
2018-03-30T07:31:49.960Z,11.10
2018-03-30T07:34:18.384Z,11.63
2018-03-30T07:36:47.548Z,11.25
2018-03-30T07:39:15.977Z,11.65
2018-03-30T07:41:45.148Z,11.03
2018-03-30T07:44:14.320Z,11.41
2018-03-30T07:49:43.337Z,11.13
2018-03-30T07:52:11.718Z,11.62
2018-03-30T07:54:40.170Z,11.87
2018-03-30T07:57:08.596Z,12.94
2018-03-30T07:59:44.216Z,12.64
2018-03-30T08:02:13.661Z,13.37
2018-03-30T08:04:42.061Z,13.27
2018-03-30T08:07:10.458Z,12.93
2018-03-30T08:09:39.620Z,13.61
2018-03-30T08:12:08.303Z,13.56
2018-03-30T08:14:36.721Z,13.46
2018-03-30T08:17:05.141Z,13.31
2018-03-30T08:19:33.535Z,14.11
2018-03-30T08:22:01.923Z,14.21
2018-03-30T08:24:30.308Z,15.00
2018-03-30T08:26:58.747Z,14.69
2018-03-30T08:29:27.168Z,14.52
2018-03-30T08:31:55.574Z,14.92
2018-03-30T08:34:23.957Z,16.08
2018-03-30T08:36:52.354Z,15.93
2018-03-30T08:39:21.507Z,15.74
2018-03-30T08:41:49.964Z,15.74
2018-03-30T08:44:18.334Z,16.65
2018-03-30T08:46:46.751Z,17.25
2018-03-30T08:49:15.223Z,16.68
2018-03-30T08:51:43.607Z,16.59
2018-03-30T08:54:11.992Z,16.64
2018-03-30T08:56:41.678Z,17.52
2018-03-30T08:59:10.277Z,15.77
2018-03-30T09:01:38.719Z,15.57
2018-03-30T09:04:07.156Z,16.12
2018-03-30T09:06:35.568Z,16.63
2018-03-30T09:09:03.956Z,16.19
2018-03-30T09:11:32.342Z,16.13
2018-03-30T09:14:01.522Z,15.73
2018-03-30T09:16:29.925Z,16.26
2018-03-30T09:18:58.379Z,16.72
2018-03-30T09:21:26.832Z,16.60
2018-03-30T09:23:55.215Z,17.03
2018-03-30T09:26:23.646Z,16.87
2018-03-30T09:28:52.831Z,17.28
2018-03-30T09:31:22.023Z,16.93
2018-03-30T09:33:50.523Z,16.72
2018-03-30T09:36:19.699Z,17.02
2018-03-30T09:38:48.161Z,17.77
2018-03-30T09:41:16.600Z,18.18
2018-03-30T09:43:50.291Z,17.20
2018-03-30T09:49:20.559Z,16.47
2018-03-30T09:51:48.950Z,16.53
2018-03-30T09:54:17.371Z,16.12
2018-03-30T09:56:45.775Z,15.49
2018-03-30T09:59:14.211Z,16.05
2018-03-30T10:01:42.830Z,16.44
2018-03-30T10:04:11.292Z,16.48
2018-03-30T10:06:39.712Z,16.37
2018-03-30T10:09:08.904Z,16.18
2018-03-30T10:11:37.289Z,16.87
2018-03-30T10:14:06.475Z,17.69
2018-03-30T10:16:34.855Z,17.08
2018-03-30T10:19:03.407Z,17.96
2018-03-30T10:21:31.816Z,18.10
2018-03-30T10:24:00.368Z,17.59
2018-03-30T10:26:28.761Z,17.23
2018-03-30T10:28:57.176Z,18.30
2018-03-30T10:31:25.601Z,17.89
2018-03-30T10:33:53.975Z,17.88
2018-03-30T10:36:22.392Z,18.04
2018-03-30T10:38:50.867Z,18.21
2018-03-30T10:41:19.459Z,18.25
2018-03-30T10:43:48.025Z,18.56
2018-03-30T10:46:16.409Z,17.93
2018-03-30T10:48:44.835Z,17.83
2018-03-30T10:51:16.864Z,17.18
2018-03-30T10:53:45.288Z,18.38
2018-03-30T10:56:16.773Z,17.80
2018-03-30T10:58:48.379Z,18.94
2018-03-30T11:01:16.808Z,18.58
2018-03-30T11:03:50.878Z,19.04
2018-03-30T11:06:19.525Z,19.12
2018-03-30T11:08:47.915Z,17.94
2018-03-30T11:11:16.563Z,18.10
2018-03-30T11:13:45.730Z,17.98
2018-03-30T11:16:14.143Z,18.18
2018-03-30T11:18:42.568Z,18.10
2018-03-30T11:21:10.996Z,17.86
2018-03-30T11:23:39.440Z,17.21
2018-03-30T11:26:07.893Z,17.05
2018-03-30T11:28:36.303Z,17.29
2018-03-30T11:31:04.755Z,17.91
2018-03-30T11:33:33.135Z,18.55
2018-03-30T11:36:01.590Z,18.37
2018-03-30T11:38:30.762Z,18.13
2018-03-30T11:41:00.041Z,17.82
2018-03-30T11:43:28.492Z,18.10
2018-03-30T11:45:56.903Z,18.06
2018-03-30T11:48:25.333Z,17.99
2018-03-30T11:50:54.363Z,18.23
2018-03-30T11:53:23.052Z,18.62
2018-03-30T11:55:51.908Z,17.79
2018-03-30T11:58:20.560Z,17.07
2018-03-30T12:00:49.093Z,16.36
2018-03-30T12:03:18.256Z,15.88
2018-03-30T12:05:46.653Z,16.24
2018-03-30T12:08:15.322Z,16.45
2018-03-30T12:10:43.736Z,16.63
2018-03-30T12:13:12.216Z,16.71
2018-03-30T12:15:40.628Z,16.68
2018-03-30T12:18:09.044Z,17.03
2018-03-30T12:20:37.516Z,16.50
2018-03-30T12:23:06.104Z,16.39
2018-03-30T12:25:34.620Z,16.48
2018-03-30T12:28:03.006Z,16.83
2018-03-30T12:30:31.424Z,16.57
2018-03-30T12:32:59.828Z,16.48
2018-03-30T12:35:28.233Z,16.45
2018-03-30T12:37:57.517Z,16.20
2018-03-30T12:40:25.929Z,16.39
2018-03-30T12:42:54.373Z,16.36
2018-03-30T12:45:23.032Z,16.70
2018-03-30T12:47:52.246Z,16.57
2018-03-30T12:50:20.634Z,16.88
2018-03-30T12:52:49.037Z,16.64
2018-03-30T12:55:17.454Z,16.40
2018-03-30T12:57:45.896Z,16.56
2018-03-30T13:00:14.311Z,16.34
2018-03-30T13:02:42.709Z,16.16
2018-03-30T13:05:11.890Z,16.00
2018-03-30T13:07:40.301Z,15.93
2018-03-30T13:10:09.515Z,16.08
2018-03-30T13:12:38.661Z,16.33
2018-03-30T13:15:07.059Z,15.68
2018-03-30T13:17:35.503Z,15.78
2018-03-30T13:20:03.907Z,16.34
2018-03-30T13:22:32.302Z,16.51
2018-03-30T13:25:00.699Z,16.11
2018-03-30T13:27:29.908Z,16.43
2018-03-30T13:29:58.300Z,15.98
2018-03-30T13:32:26.782Z,15.96
2018-03-30T13:34:55.179Z,16.12
2018-03-30T13:37:24.273Z,16.13
2018-03-30T13:39:52.692Z,16.32
2018-03-30T13:42:21.057Z,16.08
2018-03-30T13:44:49.521Z,16.39
2018-03-30T13:47:17.921Z,16.02
2018-03-30T13:49:46.331Z,16.06
2018-03-30T13:52:34.102Z,16.27
2018-03-30T13:55:02.504Z,16.20
2018-03-30T14:00:48.990Z,15.77
2018-03-30T14:03:21.996Z,16.22
2018-03-30T14:06:13.840Z,16.35
2018-03-30T14:12:00.986Z,16.36
2018-03-30T14:14:29.384Z,16.25
2018-03-30T14:16:58.518Z,16.43
2018-03-30T14:19:28.687Z,16.31
2018-03-30T14:22:06.711Z,16.25
2018-03-30T14:24:37.948Z,15.71
2018-03-30T14:27:09.833Z,15.86
2018-03-30T14:29:38.931Z,15.74
2018-03-30T14:32:35.534Z,15.77
2018-03-30T14:35:12.518Z,15.35
2018-03-30T14:37:42.538Z,15.39
2018-03-30T14:40:30.068Z,15.35
2018-03-30T14:43:00.968Z,15.15
2018-03-30T14:45:46.914Z,15.12
2018-03-30T14:48:25.733Z,15.03
2018-03-30T14:51:10.680Z,15.10
2018-03-30T14:53:46.815Z,15.22
2018-03-30T14:56:32.698Z,15.00
2018-03-30T14:59:06.392Z,14.56
2018-03-30T15:01:46.891Z,14.51
2018-03-30T15:04:22.484Z,14.65
2018-03-30T15:06:59.510Z,14.52
2018-03-30T15:09:33.734Z,14.58
2018-03-30T15:12:11.917Z,14.67
2018-03-30T15:14:47.084Z,14.81
2018-03-30T15:17:25.501Z,14.83
2018-03-30T15:22:53.946Z,14.71
2018-03-30T15:25:23.004Z,14.70
2018-03-30T15:27:55.757Z,14.60
2018-03-30T15:30:31.743Z,14.44
2018-03-30T15:33:10.444Z,14.33
2018-03-30T15:35:54.461Z,14.43
2018-03-30T15:38:24.043Z,14.36
2018-03-30T15:40:52.955Z,14.32
2018-03-30T15:43:32.393Z,14.13
2018-03-30T15:46:26.511Z,14.02
2018-03-30T15:48:54.972Z,14.07
2018-03-30T15:51:31.770Z,14.14
2018-03-30T15:53:59.508Z,14.08
2018-03-30T15:56:30.588Z,14.06
2018-03-30T15:58:59.016Z,14.02
2018-03-30T16:01:28.760Z,14.11
2018-03-30T16:03:57.951Z,14.25
2018-03-30T16:06:26.456Z,14.24
2018-03-30T16:08:55.636Z,14.26
2018-03-30T16:11:36.624Z,14.44
2018-03-30T16:14:05.852Z,14.34
2018-03-30T16:16:34.263Z,14.47
2018-03-30T16:19:01.956Z,14.45
2018-03-30T16:21:29.795Z,14.58
2018-03-30T16:23:57.359Z,14.56
2018-03-30T16:26:24.960Z,14.55
2018-03-30T16:29:02.420Z,14.45
2018-03-30T16:31:30.019Z,14.16
2018-03-30T16:33:57.540Z,14.21
2018-03-30T16:36:25.089Z,14.23
2018-03-30T16:38:52.633Z,14.14
2018-03-30T16:41:20.178Z,14.07
2018-03-30T16:43:47.730Z,14.08
2018-03-30T16:46:15.450Z,13.81
2018-03-30T16:48:43.034Z,13.80
2018-03-30T16:51:10.637Z,13.69
2018-03-30T16:53:38.273Z,13.71
2018-03-30T16:56:06.587Z,13.77
2018-03-30T16:58:34.152Z,13.53
2018-03-30T17:01:01.714Z,13.52
2018-03-30T17:03:29.311Z,13.61
2018-03-30T17:05:56.921Z,13.48
2018-03-30T17:08:24.512Z,13.47
2018-03-30T17:10:52.088Z,13.49
2018-03-30T17:13:19.755Z,13.42
2018-03-30T17:15:47.329Z,13.39
2018-03-30T17:18:16.051Z,13.38
2018-03-30T17:20:44.842Z,13.40
2018-03-30T17:23:22.493Z,13.28
2018-03-30T17:25:50.036Z,13.26
2018-03-30T17:28:18.104Z,13.24
2018-03-30T17:30:47.541Z,13.16
2018-03-30T17:33:16.463Z,13.10
2018-03-30T17:35:44.813Z,13.09
2018-03-30T17:38:12.574Z,12.88
2018-03-30T17:40:41.069Z,12.73
2018-03-30T17:43:08.614Z,12.71
2018-03-30T17:45:36.244Z,12.58
2018-03-30T17:48:14.221Z,12.54
2018-03-30T17:50:41.832Z,12.49
2018-03-30T17:53:09.380Z,12.43
2018-03-30T17:55:37.318Z,12.44
2018-03-30T17:58:04.954Z,12.37
2018-03-30T18:00:32.539Z,12.41
2018-03-30T18:03:00.859Z,12.30
2018-03-30T18:05:28.494Z,12.42
2018-03-30T18:07:56.058Z,12.35
2018-03-30T18:10:23.621Z,12.01
2018-03-30T18:12:51.187Z,11.95
2018-03-30T18:15:18.733Z,11.72
2018-03-30T18:17:46.405Z,11.44
2018-03-30T18:20:14.094Z,11.21
2018-03-30T18:22:42.399Z,11.04
2018-03-30T18:25:10.109Z,11.05
2018-03-30T18:27:38.440Z,11.02
2018-03-30T18:30:06.120Z,11.02
2018-03-30T18:32:33.989Z,11.00
2018-03-30T18:35:01.595Z,11.06
2018-03-30T18:37:29.520Z,11.04
2018-03-30T18:39:57.193Z,11.06
2018-03-30T18:42:24.860Z,11.01
2018-03-30T18:44:52.512Z,10.97
2018-03-30T18:47:20.108Z,11.05
2018-03-30T18:49:47.706Z,10.92
2018-03-30T18:52:16.225Z,10.89
2018-03-30T18:54:43.908Z,10.87
2018-03-30T18:57:11.765Z,10.78
2018-03-30T18:59:39.507Z,10.75
2018-03-30T19:02:07.640Z,10.74
2018-03-30T19:04:35.235Z,10.74
2018-03-30T19:07:02.902Z,10.72
2018-03-30T19:09:30.559Z,10.78
2018-03-30T19:11:58.969Z,10.74
2018-03-30T19:14:26.531Z,10.79
2018-03-30T19:16:54.484Z,10.86
2018-03-30T19:19:22.126Z,10.80
2018-03-30T19:21:50.590Z,10.78
2018-03-30T19:24:18.347Z,10.66
2018-03-30T19:26:46.031Z,10.51
2018-03-30T19:29:14.633Z,10.42
2018-03-30T19:31:43.501Z,10.23
2018-03-30T19:34:11.147Z,10.01
2018-03-30T19:36:38.710Z,9.95
2018-03-30T19:39:06.247Z,9.85
2018-03-30T19:41:33.839Z,9.80
2018-03-30T19:44:01.372Z,9.77
2018-03-30T19:46:28.904Z,9.77
2018-03-30T19:48:56.470Z,9.85
2018-03-30T19:51:24.188Z,9.76
2018-03-30T19:53:51.870Z,9.82
2018-03-30T19:56:20.188Z,9.83
2018-03-30T19:58:47.785Z,9.80
2018-03-30T20:01:15.335Z,9.86
2018-03-30T20:03:43.141Z,9.82
2018-03-30T20:06:10.714Z,9.77
2018-03-30T20:08:39.118Z,9.67
2018-03-30T20:11:06.648Z,9.64
2018-03-30T20:13:34.978Z,9.67
2018-03-30T20:16:02.772Z,9.66
2018-03-30T20:18:30.351Z,9.63
2018-03-30T20:20:58.127Z,9.51
2018-03-30T20:23:25.813Z,9.50
2018-03-30T20:25:53.375Z,9.50
2018-03-30T20:28:20.975Z,9.49
2018-03-30T20:30:49.293Z,9.51
2018-03-30T20:33:16.827Z,9.42
2018-03-30T20:35:44.491Z,9.44
2018-03-30T20:38:12.566Z,9.36
2018-03-30T20:40:40.236Z,9.37
2018-03-30T20:43:07.903Z,9.34
2018-03-30T20:45:35.751Z,9.37
2018-03-30T20:48:03.353Z,9.37
2018-03-30T20:50:30.899Z,9.38
2018-03-30T20:52:58.458Z,9.39
2018-03-30T20:55:26.276Z,9.33
2018-03-30T20:57:54.624Z,9.38
2018-03-30T21:02:55.977Z,9.39
2018-03-30T21:05:23.579Z,9.36
2018-03-30T21:07:51.175Z,9.31
2018-03-30T21:10:19.487Z,9.38
2018-03-30T21:12:47.049Z,9.28
2018-03-30T21:15:14.594Z,9.27
2018-03-30T21:17:42.983Z,9.29
2018-03-30T21:20:10.512Z,9.25
2018-03-30T21:22:38.970Z,9.25
2018-03-30T21:25:06.582Z,9.15
2018-03-30T21:27:34.115Z,9.16
2018-03-30T21:30:02.425Z,9.13
2018-03-30T21:32:30.100Z,9.13
2018-03-30T21:34:57.896Z,9.14
2018-03-30T21:37:25.460Z,9.13
2018-03-30T21:39:53.020Z,9.07
2018-03-30T21:42:20.679Z,9.00
2018-03-30T21:44:48.232Z,9.02
2018-03-30T21:47:15.757Z,8.99
2018-03-30T21:49:43.301Z,8.91
2018-03-30T21:52:11.605Z,8.86
2018-03-30T21:54:39.135Z,8.98
2018-03-30T21:57:07.439Z,8.99
2018-03-30T21:59:35.002Z,8.86
2018-03-30T22:02:02.568Z,8.87
2018-03-30T22:04:30.161Z,8.85
2018-03-30T22:06:57.841Z,8.87
2018-03-30T22:09:25.387Z,8.97
2018-03-30T22:11:52.952Z,8.93
2018-03-30T22:14:20.564Z,8.93
2018-03-30T22:16:48.270Z,8.89
2018-03-30T22:19:15.816Z,8.89
2018-03-30T22:21:43.463Z,8.74
2018-03-30T22:24:11.013Z,8.73
2018-03-30T22:26:39.377Z,8.67
2018-03-30T22:29:06.921Z,8.68
2018-03-30T22:31:34.529Z,8.63
2018-03-30T22:34:02.397Z,8.68
2018-03-30T22:36:30.144Z,8.73
2018-03-30T22:38:58.531Z,8.72
2018-03-30T22:41:26.069Z,8.79
2018-03-30T22:43:53.702Z,8.82
2018-03-30T22:46:21.253Z,8.72
2018-03-30T22:48:48.775Z,8.67
2018-03-30T22:51:17.077Z,8.59
2018-03-30T22:53:44.637Z,8.54
2018-03-30T22:56:12.192Z,8.45
2018-03-30T22:58:39.775Z,8.50
2018-03-30T23:01:07.260Z,8.49
2018-03-30T23:03:34.895Z,8.44
2018-03-30T23:06:02.423Z,8.34
2018-03-30T23:08:30.736Z,8.32
2018-03-30T23:10:58.274Z,8.26
2018-03-30T23:13:25.804Z,8.20
2018-03-30T23:15:53.334Z,8.08
2018-03-30T23:18:20.881Z,8.06
2018-03-30T23:20:48.432Z,8.04
2018-03-30T23:23:15.987Z,7.93
2018-03-30T23:25:44.367Z,7.99
2018-03-30T23:28:11.938Z,7.89
2018-03-30T23:30:39.511Z,7.74
2018-03-30T23:33:07.068Z,7.82
2018-03-30T23:35:34.630Z,7.74
2018-03-30T23:38:02.204Z,7.78
2018-03-30T23:42:56.995Z,7.60
2018-03-30T23:45:24.555Z,7.49
2018-03-30T23:47:52.867Z,7.54
2018-03-30T23:50:20.387Z,7.32
2018-03-30T23:52:47.932Z,7.44
2018-03-30T23:55:16.230Z,7.61
2018-03-30T23:57:44.640Z,7.52
